createdAt,value
2018-12-18T00:01:35.171Z,10.57
2018-12-18T00:03:39.287Z,10.70
2018-12-18T00:05:39.551Z,10.80
2018-12-18T00:07:40.559Z,10.33
2018-12-18T00:09:41.594Z,11.00
2018-12-18T00:11:42.607Z,11.13
2018-12-18T00:13:43.624Z,10.70
2018-12-18T00:15:44.655Z,10.53
2018-12-18T00:17:45.667Z,10.83
2018-12-18T00:19:46.690Z,10.50
2018-12-18T00:21:47.800Z,11.47
2018-12-18T00:23:48.826Z,11.37
2018-12-18T00:25:49.835Z,11.00
2018-12-18T00:27:50.866Z,10.97
2018-12-18T00:29:51.984Z,10.00
2018-12-18T00:31:53.011Z,10.93
2018-12-18T00:33:54.027Z,11.07
2018-12-18T00:35:54.947Z,11.60
2018-12-18T00:37:56.031Z,12.13
2018-12-18T00:39:57.034Z,11.27
2018-12-18T00:42:00.084Z,11.10
2018-12-18T00:44:01.129Z,11.17
2018-12-18T00:46:02.251Z,10.93
2018-12-18T00:48:03.258Z,11.10
2018-12-18T00:50:04.272Z,10.20
2018-12-18T00:52:05.293Z,10.37
2018-12-18T00:54:06.303Z,10.63
2018-12-18T00:56:07.339Z,9.87
2018-12-18T00:58:08.352Z,10.43
2018-12-18T01:00:09.487Z,10.40
2018-12-18T01:02:10.516Z,9.93
2018-12-18T01:04:11.431Z,10.47
2018-12-18T01:06:12.451Z,9.63
2018-12-18T01:08:13.570Z,10.37
2018-12-18T01:10:14.595Z,10.93
2018-12-18T01:12:15.620Z,9.83
2018-12-18T01:14:16.635Z,9.93
2018-12-18T01:16:17.647Z,10.27
2018-12-18T01:18:18.683Z,10.40
2018-12-18T01:20:19.695Z,10.50
2018-12-18T01:22:20.714Z,9.83
2018-12-18T01:24:21.865Z,10.20
2018-12-18T01:26:22.875Z,10.00
2018-12-18T01:28:23.803Z,8.90
2018-12-18T01:30:24.819Z,10.00
2018-12-18T01:32:25.826Z,10.20
2018-12-18T01:34:26.856Z,9.77
2018-12-18T01:36:27.867Z,10.87
2018-12-18T01:38:28.880Z,9.63
2018-12-18T01:40:29.954Z,10.13
2018-12-18T01:42:30.959Z,9.67
2018-12-18T01:44:31.991Z,10.30
2018-12-18T01:46:33.003Z,10.30
2018-12-18T01:48:34.034Z,10.40
2018-12-18T01:50:35.065Z,10.30
2018-12-18T01:52:36.188Z,10.63
2018-12-18T01:54:37.201Z,10.67
2018-12-18T01:56:38.223Z,9.77
2018-12-18T01:58:39.243Z,10.00
2018-12-18T02:00:40.167Z,10.00
2018-12-18T02:02:41.201Z,10.23
2018-12-18T02:04:42.223Z,11.23
2018-12-18T02:06:43.147Z,11.33
2018-12-18T02:08:44.218Z,10.67
2018-12-18T02:10:45.335Z,9.97
2018-12-18T02:12:46.362Z,10.93
2018-12-18T02:14:47.375Z,10.17
2018-12-18T02:16:48.394Z,12.33
2018-12-18T02:18:49.447Z,10.90
2018-12-18T02:20:50.478Z,11.63
2018-12-18T02:22:51.511Z,11.00
2018-12-18T02:24:52.535Z,11.87
2018-12-18T02:26:53.554Z,12.10
2018-12-18T02:28:54.607Z,12.07
2018-12-18T02:30:55.623Z,11.53
2018-12-18T02:32:56.744Z,11.13
2018-12-18T02:34:57.783Z,10.83
2018-12-18T02:36:58.796Z,11.20
2018-12-18T02:38:59.813Z,11.57
2018-12-18T02:41:00.863Z,12.37
2018-12-18T02:43:01.907Z,11.67
2018-12-18T02:45:02.939Z,13.23
2018-12-18T02:47:03.987Z,12.03
2018-12-18T02:49:05.038Z,11.77
2018-12-18T02:51:06.131Z,11.63
2018-12-18T02:53:07.181Z,11.73
2018-12-18T02:55:08.203Z,11.43
2018-12-18T02:57:09.244Z,11.63
2018-12-18T02:59:10.279Z,11.90
2018-12-18T03:01:11.308Z,12.33
2018-12-18T03:03:12.342Z,12.07
2018-12-18T03:05:13.375Z,12.20
2018-12-18T03:07:14.413Z,11.93
2018-12-18T03:09:15.458Z,11.50
2018-12-18T03:11:20.671Z,12.20
2018-12-18T03:13:21.631Z,12.37
2018-12-18T03:15:22.663Z,12.80
2018-12-18T03:17:23.704Z,12.43
2018-12-18T03:19:24.864Z,12.27
2018-12-18T03:21:25.918Z,13.70
2018-12-18T03:23:26.943Z,14.63
2018-12-18T03:25:27.962Z,13.73
2018-12-18T03:27:28.997Z,13.67
2018-12-18T03:29:30.068Z,14.47
2018-12-18T03:31:31.584Z,13.87
2018-12-18T03:33:32.650Z,14.57
2018-12-18T03:35:33.710Z,14.47
2018-12-18T03:37:34.758Z,14.30
2018-12-18T03:39:35.806Z,14.47
2018-12-18T03:41:36.876Z,13.83
2018-12-18T03:43:37.879Z,14.80
2018-12-18T03:45:39.032Z,13.63
2018-12-18T03:47:40.158Z,13.93
2018-12-18T03:49:41.296Z,14.57
2018-12-18T03:51:42.503Z,15.57
2018-12-18T03:53:43.626Z,15.47
2018-12-18T03:55:44.679Z,15.40
2018-12-18T03:57:45.732Z,14.63
2018-12-18T03:59:46.773Z,15.60
2018-12-18T04:01:47.797Z,14.67
2018-12-18T04:03:48.843Z,14.40
2018-12-18T04:05:49.885Z,16.13
2018-12-18T04:07:50.920Z,15.03
2018-12-18T04:09:52.084Z,15.50
2018-12-18T04:11:58.847Z,15.40
2018-12-18T04:13:59.864Z,15.47
2018-12-18T04:16:00.899Z,14.83
2018-12-18T04:18:02.036Z,15.47
2018-12-18T04:20:03.076Z,16.20
2018-12-18T04:22:04.100Z,16.70
2018-12-18T04:24:05.123Z,19.97
2018-12-18T04:26:06.181Z,21.80
2018-12-18T04:28:07.320Z,16.97
2018-12-18T04:30:08.359Z,22.40
2018-12-18T04:32:09.381Z,15.37
2018-12-18T04:34:10.415Z,18.17
2018-12-18T04:36:11.443Z,16.67
2018-12-18T04:38:12.480Z,17.77
2018-12-18T04:40:13.492Z,17.73
2018-12-18T04:42:14.639Z,18.67
2018-12-18T04:44:15.671Z,16.53
2018-12-18T04:46:16.682Z,16.47
2018-12-18T04:48:17.709Z,18.23
2018-12-18T04:50:18.736Z,17.87
2018-12-18T04:52:19.768Z,15.73
2018-12-18T04:54:20.797Z,20.77
2018-12-18T04:56:21.811Z,17.23
2018-12-18T04:58:22.826Z,16.23
2018-12-18T05:00:23.864Z,20.07
2018-12-18T05:02:24.889Z,17.97
2018-12-18T05:04:25.909Z,20.93
2018-12-18T05:06:27.048Z,18.27
2018-12-18T05:08:28.173Z,17.07
2018-12-18T05:10:29.312Z,16.50
2018-12-18T05:12:30.327Z,17.00
2018-12-18T05:14:31.465Z,19.80
2018-12-18T05:16:32.647Z,15.20
2018-12-18T05:18:33.736Z,15.87
2018-12-18T05:20:34.762Z,19.37
2018-12-18T05:22:35.796Z,17.80
2018-12-18T05:24:36.914Z,15.37
2018-12-18T05:26:37.939Z,16.07
2018-12-18T05:28:38.967Z,16.53
2018-12-18T05:30:39.991Z,16.07
2018-12-18T05:32:41.024Z,17.17
2018-12-18T05:34:42.172Z,16.20
2018-12-18T05:36:43.199Z,16.77
2018-12-18T05:38:44.263Z,21.80
2018-12-18T05:40:45.192Z,19.07
2018-12-18T05:42:46.223Z,15.93
2018-12-18T05:44:47.252Z,20.10
2018-12-18T05:46:48.197Z,13.80
2018-12-18T05:48:49.315Z,18.80
2018-12-18T05:50:50.332Z,21.27
2018-12-18T05:52:51.376Z,19.30
2018-12-18T05:54:52.423Z,20.30
2018-12-18T05:56:53.443Z,17.07
2018-12-18T05:58:54.459Z,16.43
2018-12-18T06:00:55.504Z,17.03
2018-12-18T06:02:56.539Z,17.47
2018-12-18T06:05:03.235Z,20.83
2018-12-18T06:07:00.608Z,22.43
2018-12-18T06:09:01.803Z,22.13
2018-12-18T06:11:02.824Z,19.07
2018-12-18T06:13:03.867Z,18.07
2018-12-18T06:15:04.887Z,17.60
2018-12-18T06:17:05.915Z,21.37
2018-12-18T06:19:06.847Z,17.70
2018-12-18T06:21:07.795Z,17.93
2018-12-18T06:23:08.706Z,18.97
2018-12-18T06:25:09.848Z,17.50
2018-12-18T06:27:10.887Z,19.20
2018-12-18T06:29:11.903Z,18.67
2018-12-18T06:31:12.939Z,24.27
2018-12-18T06:33:13.979Z,20.13
2018-12-18T06:35:15.012Z,18.10
2018-12-18T06:37:16.119Z,17.77
2018-12-18T06:39:17.172Z,19.63
2018-12-18T06:41:18.208Z,17.77
2018-12-18T06:43:19.229Z,20.40
2018-12-18T06:45:20.271Z,15.57
2018-12-18T06:47:21.286Z,22.13
2018-12-18T06:49:22.320Z,17.53
2018-12-18T06:51:23.362Z,19.60
2018-12-18T06:53:24.385Z,18.23
2018-12-18T06:55:25.815Z,17.97
2018-12-18T06:57:27.079Z,19.53
2018-12-18T06:59:28.104Z,18.63
2018-12-18T07:01:29.144Z,20.17
2018-12-18T07:03:30.287Z,23.70
2018-12-18T07:05:31.330Z,18.97
2018-12-18T07:07:32.272Z,16.27
2018-12-18T07:09:33.307Z,20.80
2018-12-18T07:11:34.326Z,22.00
2018-12-18T07:13:35.359Z,18.70
2018-12-18T07:15:36.393Z,20.80
2018-12-18T07:17:37.404Z,19.20
2018-12-18T07:19:38.329Z,19.07
2018-12-18T07:21:39.370Z,20.20
2018-12-18T07:23:40.403Z,16.43
2018-12-18T07:25:41.435Z,20.50
2018-12-18T07:27:42.438Z,18.23
2018-12-18T07:29:43.467Z,17.77
2018-12-18T07:31:44.495Z,17.70
2018-12-18T07:33:45.519Z,16.87
2018-12-18T07:35:46.527Z,18.03
2018-12-18T07:37:47.435Z,19.10
2018-12-18T07:39:48.467Z,18.73
2018-12-18T07:41:49.475Z,21.90
2018-12-18T07:43:50.498Z,21.67
2018-12-18T07:45:51.522Z,22.77
2018-12-18T07:47:52.543Z,20.13
2018-12-18T07:49:53.551Z,18.47
2018-12-18T07:51:54.578Z,19.20
2018-12-18T07:53:55.500Z,17.80
2018-12-18T07:56:00.234Z,19.33
2018-12-18T07:57:59.544Z,22.63
2018-12-18T08:00:00.667Z,20.73
2018-12-18T08:02:01.695Z,19.63
2018-12-18T08:04:02.713Z,20.13
2018-12-18T08:06:03.743Z,20.33
2018-12-18T08:08:04.770Z,18.60
2018-12-18T08:10:05.780Z,17.00
2018-12-18T08:12:06.791Z,18.00
2018-12-18T08:14:07.831Z,18.70
2018-12-18T08:16:08.867Z,17.33
2018-12-18T08:18:09.959Z,17.93
2018-12-18T08:20:10.967Z,17.60
2018-12-18T08:22:11.987Z,18.03
2018-12-18T08:24:13.033Z,17.20
2018-12-18T08:26:14.198Z,19.23
2018-12-18T08:28:15.220Z,18.57
2018-12-18T08:30:16.235Z,19.00
2018-12-18T08:32:17.252Z,19.40
2018-12-18T08:34:18.391Z,19.80
2018-12-18T08:36:19.399Z,19.63
2018-12-18T08:38:20.418Z,20.10
2018-12-18T08:40:21.547Z,18.90
2018-12-18T08:42:22.579Z,18.80
2018-12-18T08:44:23.591Z,15.97
2018-12-18T08:46:24.610Z,17.17
2018-12-18T08:48:25.682Z,18.53
2018-12-18T08:50:26.723Z,17.70
2018-12-18T08:52:27.734Z,19.00
2018-12-18T08:54:28.779Z,18.47
2018-12-18T08:56:29.911Z,18.60
2018-12-18T08:58:30.923Z,18.47
2018-12-18T09:00:31.938Z,18.10
2018-12-18T09:02:32.973Z,19.70
2018-12-18T09:04:33.992Z,17.30
2018-12-18T09:06:35.007Z,16.87
2018-12-18T09:08:36.048Z,17.30
2018-12-18T09:10:39.908Z,19.67
2018-12-18T09:12:41.179Z,20.47
2018-12-18T09:14:46.811Z,18.03
2018-12-18T09:16:53.720Z,18.30
2018-12-18T09:18:54.831Z,17.70
2018-12-18T09:20:55.855Z,17.60
2018-12-18T09:22:56.909Z,19.10
2018-12-18T09:24:58.047Z,17.73
2018-12-18T09:26:59.074Z,17.33
2018-12-18T09:29:00.104Z,16.47
2018-12-18T09:31:01.159Z,17.30
2018-12-18T09:33:02.166Z,16.87
2018-12-18T09:35:03.354Z,17.20
2018-12-18T09:37:04.428Z,16.07
2018-12-18T09:39:11.188Z,16.87
2018-12-18T09:41:18.145Z,16.00
2018-12-18T09:43:24.818Z,15.27
2018-12-18T09:45:25.807Z,15.10
2018-12-18T09:47:26.819Z,15.10
2018-12-18T09:49:27.847Z,13.37
2018-12-18T09:51:28.755Z,13.40
2018-12-18T09:53:29.689Z,13.10
2018-12-18T09:55:30.723Z,13.50
2018-12-18T09:57:37.450Z,13.97
2018-12-18T09:59:38.475Z,13.17
2018-12-18T10:01:39.488Z,12.80
2018-12-18T10:03:40.527Z,14.33
2018-12-18T10:05:41.569Z,13.87
2018-12-18T10:07:42.591Z,13.70
2018-12-18T10:09:43.617Z,13.77
2018-12-18T10:11:44.643Z,12.57
2018-12-18T10:13:45.659Z,12.20
2018-12-18T10:15:46.769Z,11.50
2018-12-18T10:17:47.844Z,11.43
2018-12-18T10:19:48.935Z,11.50
2018-12-18T10:21:49.933Z,12.60
2018-12-18T10:23:50.978Z,11.53
2018-12-18T10:25:52.132Z,11.63
2018-12-18T10:27:53.215Z,9.67
2018-12-18T10:29:54.326Z,9.87
2018-12-18T10:31:55.455Z,10.33
2018-12-18T10:33:56.521Z,10.03
2018-12-18T10:36:02.983Z,9.30
2018-12-18T10:38:00.591Z,9.93
2018-12-18T10:40:01.723Z,9.80
2018-12-18T10:42:02.787Z,9.87
2018-12-18T10:44:03.858Z,9.83
2018-12-18T10:46:04.950Z,10.10
2018-12-18T10:48:06.018Z,9.43
2018-12-18T10:50:07.071Z,10.03
2018-12-18T10:52:08.140Z,9.90
2018-12-18T10:54:09.156Z,10.23
2018-12-18T10:56:10.304Z,9.93
2018-12-18T10:58:11.361Z,10.00
2018-12-18T11:00:18.064Z,8.70
2018-12-18T11:02:19.146Z,8.97
2018-12-18T11:04:20.287Z,8.20
2018-12-18T11:06:21.443Z,8.07
2018-12-18T11:08:22.487Z,7.67
2018-12-18T11:10:23.555Z,7.90
2018-12-18T11:12:30.327Z,7.93
2018-12-18T11:14:31.382Z,8.13
2018-12-18T11:16:37.286Z,8.10
2018-12-18T11:18:35.533Z,7.17
2018-12-18T11:20:36.566Z,6.80
2018-12-18T11:22:37.703Z,6.63
2018-12-18T11:24:38.821Z,7.30
2018-12-18T11:26:39.901Z,6.83
2018-12-18T11:28:40.986Z,6.83
2018-12-18T11:30:42.070Z,7.37
2018-12-18T11:32:43.151Z,7.13
2018-12-18T11:34:44.212Z,7.63
2018-12-18T11:36:45.274Z,7.60
2018-12-18T11:38:46.368Z,6.60
2018-12-18T11:40:47.381Z,6.40
2018-12-18T11:42:48.623Z,6.10
2018-12-18T11:44:49.647Z,6.37
2018-12-18T11:46:50.693Z,5.50
2018-12-18T11:48:52.700Z,5.17
2018-12-18T11:50:53.755Z,4.73
2018-12-18T11:52:54.886Z,4.60
2018-12-18T11:54:56.023Z,3.93
2018-12-18T11:56:57.196Z,3.97
2018-12-18T11:58:58.307Z,3.40
2018-12-18T12:00:59.563Z,4.40
2018-12-18T12:03:00.622Z,4.77
2018-12-18T12:05:01.672Z,4.67
2018-12-18T12:07:02.746Z,4.63
2018-12-18T12:09:04.035Z,4.57
2018-12-18T12:11:05.179Z,4.10
2018-12-18T12:13:06.215Z,3.80
2018-12-18T12:15:07.317Z,3.83
2018-12-18T12:17:08.380Z,3.47
2018-12-18T12:19:09.409Z,3.13
2018-12-18T12:21:10.462Z,2.60
2018-12-18T12:23:11.539Z,2.43
2018-12-18T12:25:12.575Z,2.93
2018-12-18T12:27:19.430Z,2.90
2018-12-18T12:29:20.482Z,2.60
2018-12-18T12:31:21.521Z,3.13
2018-12-18T12:33:22.567Z,2.83
2018-12-18T12:35:23.559Z,3.00
2018-12-18T12:37:24.623Z,3.20
2018-12-18T12:39:25.652Z,2.60
2018-12-18T12:41:26.665Z,3.00
2018-12-18T12:43:27.764Z,3.10
2018-12-18T12:45:29.011Z,2.97
2018-12-18T12:47:30.111Z,2.63
2018-12-18T12:49:37.018Z,3.40
2018-12-18T12:51:38.055Z,3.80
2018-12-18T12:53:39.044Z,3.90
2018-12-18T12:55:40.147Z,3.63
2018-12-18T12:57:41.156Z,3.30
2018-12-18T12:59:42.178Z,3.37
2018-12-18T13:01:43.217Z,3.40
2018-12-18T13:03:44.259Z,3.60
2018-12-18T13:05:45.353Z,3.87
2018-12-18T13:07:46.447Z,3.90
2018-12-18T13:09:47.531Z,3.30
2018-12-18T13:11:48.615Z,3.20
2018-12-18T13:13:49.644Z,3.40
2018-12-18T13:15:50.669Z,3.70
2018-12-18T13:17:51.753Z,3.60
2018-12-18T13:19:52.917Z,3.70
2018-12-18T13:21:54.057Z,3.30
2018-12-18T13:23:55.159Z,4.00
2018-12-18T13:25:56.158Z,4.30
2018-12-18T13:27:57.290Z,4.27
2018-12-18T13:29:58.552Z,4.43
2018-12-18T13:31:59.841Z,4.40
2018-12-18T13:34:02.040Z,5.07
2018-12-18T13:36:03.189Z,5.23
2018-12-18T13:38:04.365Z,5.57
2018-12-18T13:40:05.429Z,5.10
2018-12-18T13:42:06.440Z,4.73
2018-12-18T13:44:07.499Z,4.00
2018-12-18T13:46:14.793Z,4.07
2018-12-18T13:48:11.655Z,4.40
2018-12-18T13:50:12.688Z,4.37
2018-12-18T13:52:13.738Z,4.23
2018-12-18T13:54:14.855Z,4.30
2018-12-18T13:56:15.887Z,4.17
2018-12-18T13:58:16.954Z,3.80
2018-12-18T14:00:18.075Z,4.17
2018-12-18T14:02:19.114Z,4.17
2018-12-18T14:04:20.138Z,4.43
2018-12-18T14:06:21.079Z,4.10
2018-12-18T14:08:22.162Z,4.10
2018-12-18T14:10:23.294Z,4.77
2018-12-18T14:12:24.338Z,4.10
2018-12-18T14:14:25.407Z,4.53
2018-12-18T14:16:26.471Z,4.83
2018-12-18T14:18:27.639Z,5.10
2018-12-18T14:20:28.678Z,4.20
2018-12-18T14:22:29.760Z,4.50
2018-12-18T14:24:30.775Z,4.63
2018-12-18T14:26:31.870Z,5.50
2018-12-18T14:28:32.844Z,5.70
2018-12-18T14:30:33.891Z,6.00
2018-12-18T14:32:34.999Z,5.90
2018-12-18T14:34:36.103Z,5.90
2018-12-18T14:36:38.298Z,6.40
2018-12-18T14:38:39.618Z,6.50
2018-12-18T14:40:40.660Z,6.20
2018-12-18T14:42:41.739Z,5.63
2018-12-18T14:44:42.759Z,5.30
2018-12-18T14:46:43.795Z,5.00
2018-12-18T14:48:44.814Z,5.63
2018-12-18T14:50:45.857Z,6.60
2018-12-18T14:52:46.803Z,6.97
2018-12-18T14:54:47.827Z,7.30
2018-12-18T14:56:48.867Z,7.67
2018-12-18T14:58:49.992Z,7.50
2018-12-18T15:00:51.010Z,7.73
2018-12-18T15:02:52.035Z,7.60
2018-12-18T15:04:53.051Z,7.60
2018-12-18T15:06:54.138Z,7.57
2018-12-18T15:08:55.171Z,7.87
2018-12-18T15:10:56.180Z,7.60
2018-12-18T15:12:57.203Z,7.93
2018-12-18T15:14:58.232Z,7.90
2018-12-18T15:16:59.243Z,9.07
2018-12-18T15:19:00.263Z,8.97
2018-12-18T15:21:01.271Z,7.10
2018-12-18T15:23:02.299Z,7.07
2018-12-18T15:25:03.327Z,4.40
2018-12-18T15:27:04.385Z,7.67
2018-12-18T15:29:05.513Z,6.27
2018-12-18T15:31:06.640Z,6.80
2018-12-18T15:33:07.655Z,7.20
2018-12-18T15:35:08.715Z,7.23
2018-12-18T15:37:10.013Z,7.10
2018-12-18T15:39:11.151Z,7.20
2018-12-18T15:41:12.171Z,6.83
2018-12-18T15:43:13.174Z,7.17
2018-12-18T15:45:14.224Z,7.73
2018-12-18T15:47:15.235Z,7.20
2018-12-18T15:49:16.258Z,7.60
2018-12-18T15:51:17.291Z,8.50
2018-12-18T15:53:18.320Z,8.30
2018-12-18T15:55:19.417Z,8.97
2018-12-18T15:57:20.347Z,8.50
2018-12-18T15:59:21.354Z,10.53
2018-12-18T16:01:22.387Z,9.27
2018-12-18T16:03:23.467Z,9.67
2018-12-18T16:05:24.456Z,9.90
2018-12-18T16:07:25.454Z,9.13
2018-12-18T16:09:26.514Z,8.70
2018-12-18T16:11:27.528Z,8.87
2018-12-18T16:13:28.587Z,10.10
2018-12-18T16:15:29.543Z,9.80
2018-12-18T16:17:30.627Z,11.47
2018-12-18T16:19:31.955Z,12.43
2018-12-18T16:21:33.031Z,13.00
2018-12-18T16:23:34.065Z,12.97
2018-12-18T16:25:35.118Z,12.53
2018-12-18T16:27:36.189Z,11.27
2018-12-18T16:29:37.283Z,11.90
2018-12-18T16:31:38.459Z,11.67
2018-12-18T16:33:39.455Z,11.93
2018-12-18T16:35:45.997Z,12.20
2018-12-18T16:37:43.582Z,11.67
2018-12-18T16:39:44.622Z,11.83
2018-12-18T16:41:45.669Z,12.60
2018-12-18T16:43:46.719Z,11.27
2018-12-18T16:45:47.730Z,12.27
2018-12-18T16:47:48.789Z,11.97
2018-12-18T16:49:49.791Z,12.00
2018-12-18T16:51:50.895Z,12.43
2018-12-18T16:53:51.963Z,12.83
2018-12-18T16:55:53.076Z,11.93
2018-12-18T16:57:54.139Z,12.63
2018-12-18T16:59:55.279Z,12.40
2018-12-18T17:01:56.339Z,13.50
2018-12-18T17:03:57.383Z,13.53
2018-12-18T17:05:58.423Z,12.13
2018-12-18T17:07:59.428Z,11.30
2018-12-18T17:10:00.522Z,12.40
2018-12-18T17:12:01.617Z,11.63
2018-12-18T17:14:02.672Z,11.40
2018-12-18T17:16:03.812Z,10.83
2018-12-18T17:18:04.845Z,11.30
2018-12-18T17:20:05.811Z,11.60
2018-12-18T17:22:06.849Z,11.33
2018-12-18T17:24:07.867Z,11.63
2018-12-18T17:26:08.962Z,12.03
2018-12-18T17:28:10.136Z,11.73
2018-12-18T17:30:11.208Z,12.00
2018-12-18T17:32:12.235Z,12.30
2018-12-18T17:34:13.209Z,13.27
2018-12-18T17:36:14.236Z,12.30
2018-12-18T17:38:15.292Z,11.70
2018-12-18T17:40:16.355Z,12.30
2018-12-18T17:42:17.394Z,12.87
2018-12-18T17:44:18.604Z,12.23
2018-12-18T17:46:19.628Z,12.53
2018-12-18T17:48:20.626Z,13.37
2018-12-18T17:50:21.681Z,14.10
2018-12-18T17:52:22.723Z,13.03
2018-12-18T17:54:23.755Z,14.93
2018-12-18T17:56:24.766Z,14.30
2018-12-18T17:58:25.804Z,14.30
2018-12-18T18:00:26.879Z,15.13
2018-12-18T18:02:27.892Z,14.17
2018-12-18T18:04:28.991Z,14.97
2018-12-18T18:06:30.055Z,14.57
2018-12-18T18:08:31.232Z,15.03
2018-12-18T18:10:32.354Z,14.87
2018-12-18T18:12:33.383Z,15.37
2018-12-18T18:14:34.426Z,16.90
2018-12-18T18:16:35.458Z,17.27
2018-12-18T18:18:36.543Z,16.83
2018-12-18T18:20:37.519Z,17.07
2018-12-18T18:22:38.844Z,15.20
2018-12-18T18:24:39.915Z,13.70
2018-12-18T18:26:41.047Z,14.90
2018-12-18T18:28:42.123Z,13.17
2018-12-18T18:30:43.141Z,13.73
2018-12-18T18:32:44.215Z,13.83
2018-12-18T18:34:45.179Z,14.70
2018-12-18T18:36:46.236Z,13.77
2018-12-18T18:38:47.264Z,14.60
2018-12-18T18:40:48.366Z,13.97
2018-12-18T18:42:49.388Z,14.83
2018-12-18T18:44:50.537Z,13.97
2018-12-18T18:46:51.732Z,14.10
2018-12-18T18:48:52.706Z,14.03
2018-12-18T18:50:53.882Z,13.60
2018-12-18T18:52:55.056Z,13.93
2018-12-18T18:54:56.176Z,14.77
2018-12-18T18:56:57.199Z,15.07
2018-12-18T18:58:58.207Z,14.67
2018-12-18T19:00:59.538Z,14.93
2018-12-18T19:03:00.511Z,14.90
2018-12-18T19:05:01.551Z,14.60
2018-12-18T19:07:02.570Z,15.47
2018-12-18T19:09:03.608Z,13.63
2018-12-18T19:11:04.634Z,13.70
2018-12-18T19:13:05.652Z,14.33
2018-12-18T19:15:06.672Z,14.03
2018-12-18T19:17:07.804Z,13.43
2018-12-18T19:19:08.816Z,14.40
2018-12-18T19:21:10.035Z,13.93
2018-12-18T19:23:11.067Z,13.87
2018-12-18T19:25:12.071Z,14.00
2018-12-18T19:27:13.095Z,13.63
2018-12-18T19:29:14.187Z,12.77
2018-12-18T19:31:15.191Z,12.50
2018-12-18T19:33:16.220Z,12.40
2018-12-18T19:35:17.351Z,12.47
2018-12-18T19:37:18.379Z,12.93
2018-12-18T19:39:19.623Z,12.97
2018-12-18T19:41:20.627Z,13.10
2018-12-18T19:43:21.699Z,13.37
2018-12-18T19:45:22.730Z,13.33
2018-12-18T19:47:23.796Z,13.80
2018-12-18T19:49:24.820Z,13.30
2018-12-18T19:51:25.844Z,14.03
2018-12-18T19:53:26.867Z,14.43
2018-12-18T19:55:27.931Z,16.13
2018-12-18T19:57:28.943Z,16.20
2018-12-18T19:59:29.982Z,17.80
2018-12-18T20:01:30.995Z,19.63
2018-12-18T20:03:32.006Z,21.67
2018-12-18T20:05:33.022Z,18.50
2018-12-18T20:07:33.943Z,19.10
2018-12-18T20:09:34.978Z,18.60
2018-12-18T20:11:36.012Z,17.27
2018-12-18T20:13:37.131Z,16.73
2018-12-18T20:15:38.143Z,17.73
2018-12-18T20:17:39.166Z,18.47
2018-12-18T20:19:40.506Z,17.97
2018-12-18T20:21:41.479Z,17.90
2018-12-18T20:23:42.492Z,17.10
2018-12-18T20:25:44.139Z,17.43
2018-12-18T20:27:45.259Z,18.53
2018-12-18T20:29:46.503Z,17.93
2018-12-18T20:31:47.542Z,18.13
2018-12-18T20:33:48.515Z,18.40
2018-12-18T20:35:49.539Z,17.83
2018-12-18T20:37:50.579Z,17.97
2018-12-18T20:39:51.595Z,18.53
2018-12-18T20:41:52.609Z,18.37
2018-12-18T20:43:53.639Z,17.77
2018-12-18T20:45:54.646Z,17.67
2018-12-18T20:47:55.674Z,18.23
2018-12-18T20:49:57.735Z,18.27
2018-12-18T20:51:58.635Z,18.00
2018-12-18T20:53:59.651Z,17.30
2018-12-18T20:56:00.672Z,18.10
2018-12-18T20:58:01.687Z,17.00
2018-12-18T21:00:02.737Z,17.03
2018-12-18T21:17:57.276Z,18.47
2018-12-18T21:19:58.326Z,18.07
2018-12-18T21:21:59.354Z,17.70
2018-12-18T21:24:00.653Z,17.83
2018-12-18T21:26:01.697Z,17.43
2018-12-18T21:28:02.728Z,18.27
2018-12-18T21:30:03.879Z,18.57
2018-12-18T21:32:04.901Z,19.23
2018-12-18T21:34:06.047Z,18.30
2018-12-18T21:36:07.076Z,20.07
2018-12-18T21:38:08.103Z,18.40
2018-12-18T21:40:09.148Z,20.03
2018-12-18T21:42:10.201Z,19.73
2018-12-18T21:44:11.443Z,21.67
2018-12-18T21:46:12.522Z,21.27
2018-12-18T21:48:13.571Z,19.40
2018-12-18T21:50:14.697Z,19.23
2018-12-18T21:52:15.824Z,19.67
2018-12-18T21:54:16.879Z,19.73
2018-12-18T21:56:17.907Z,20.77
2018-12-18T21:58:18.921Z,21.33
2018-12-18T22:00:20.072Z,21.60
2018-12-18T22:02:21.111Z,20.17
2018-12-18T22:04:22.160Z,21.10
2018-12-18T22:06:23.175Z,20.23
2018-12-18T22:08:24.216Z,20.57
2018-12-18T22:10:25.231Z,20.50
2018-12-18T22:12:26.258Z,20.40
2018-12-18T22:14:27.156Z,21.33
2018-12-18T22:16:28.231Z,19.57
2018-12-18T22:18:29.165Z,21.60
2018-12-18T22:20:30.283Z,19.40
2018-12-18T22:22:31.287Z,20.83
2018-12-18T22:24:32.375Z,20.13
2018-12-18T22:26:33.395Z,21.27
2018-12-18T22:28:34.492Z,21.73
2018-12-18T22:30:35.575Z,20.03
2018-12-18T22:32:36.596Z,21.57
2018-12-18T22:34:37.500Z,20.30
2018-12-18T22:36:38.526Z,20.73
2018-12-18T22:38:43.539Z,21.43
2018-12-18T22:40:42.551Z,22.20
2018-12-18T22:42:43.579Z,22.50
2018-12-18T22:44:44.595Z,23.27
2018-12-18T22:46:45.620Z,21.33
2018-12-18T22:48:46.642Z,21.83
2018-12-18T22:50:47.664Z,21.87
2018-12-18T22:52:48.689Z,20.20
2018-12-18T22:54:49.723Z,21.37
2018-12-18T22:56:50.753Z,20.27
2018-12-18T22:58:51.872Z,19.83
2018-12-18T23:00:58.740Z,20.50
2018-12-18T23:02:59.923Z,20.97
2018-12-18T23:05:00.998Z,20.87
2018-12-18T23:07:02.163Z,21.50
2018-12-18T23:09:03.690Z,22.20
2018-12-18T23:11:04.832Z,20.93
2018-12-18T23:13:05.955Z,22.40
2018-12-18T23:15:07.003Z,23.07
2018-12-18T23:17:08.020Z,22.87
2018-12-18T23:19:09.046Z,21.67
2018-12-18T23:21:10.059Z,22.77
2018-12-18T23:23:11.077Z,21.83
2018-12-18T23:25:12.112Z,22.17
2018-12-18T23:27:13.123Z,22.27
2018-12-18T23:29:14.199Z,21.93
2018-12-18T23:31:15.225Z,22.67
2018-12-18T23:33:16.353Z,22.33
2018-12-18T23:35:17.355Z,22.63
2018-12-18T23:37:18.427Z,22.83
2018-12-18T23:39:19.459Z,22.20
2018-12-18T23:41:20.485Z,20.27
2018-12-18T23:43:21.647Z,20.93
2018-12-18T23:45:22.883Z,20.17
2018-12-18T23:47:23.914Z,20.97
2018-12-18T23:49:24.948Z,20.37
2018-12-18T23:51:25.975Z,21.27
2018-12-18T23:53:27.024Z,20.47
2018-12-18T23:55:28.062Z,19.20
2018-12-18T23:57:29.095Z,19.93
2018-12-18T23:59:30.139Z,20.13
